Piney Fork, Ohio
Current Conditions -  °F | °C
As of 11:53 AM on Sunday 21 Dec 2014 (Local Time) from KHLG Reporting Station
Overcast Overcast  
Wind Chill: 33°   Ceiling: 2400
Heat Index: 33°   Visibility: 10mi
Dew Point: 22°   Wind: 3mph
Humidity: 64%   Direction: NA
Pressure: 30.29"   Gusts: NA
Location:  40.27°N, 80.83°W
Report Text: KHLG 211653Z VRB03KT 10SM OVC024 01/M06 A3029 RMK AO2 SLP272 T00061056
Loading
Personal Weather Stations






























Interactive Weather Map New forecast layout! Learn more

10-Day Weather Forecast

Advertisements
Track Severe Weather on mobile